Time;durP1;ratioP1;P1;durP2;ratioP2;P2;SDS_P1;SDS_P2;PMS_P1;PMS_P2;Temp;Humidity;BMP_temperature;BMP_pressure;BME280_temperature;BME280_humidity;BME280_pressure;Samples;Min_cycle;Max_cycle;Signal;HPM_P1;HPM_P2
2023/08/04 00:00:49;;;;;;;0.40;0.30;;;;;;;26.32;77.45;95000.66;5112782;28;20444;-63
2023/08/04 00:03:18;;;;;;;0.70;0.50;;;;;;;26.30;77.00;94994.06;5111848;28;20443;-63
2023/08/04 00:05:46;;;;;;;0.40;0.33;;;;;;;26.30;77.69;95002.19;5112114;28;20440;-63
2023/08/04 00:08:14;;;;;;;0.40;0.40;;;;;;;26.24;77.44;94996.31;5112285;28;20431;-62
2023/08/04 00:10:43;;;;;;;0.40;0.33;;;;;;;26.21;77.97;94997.06;5112494;28;20550;-63
2023/08/04 00:13:11;;;;;;;0.77;0.40;;;;;;;26.12;78.92;94996.63;5111957;28;20438;-63
2023/08/04 00:15:41;;;;;;;0.40;0.23;;;;;;;26.08;79.31;95003.16;5111799;28;20930;-63
2023/08/04 00:18:09;;;;;;;0.67;0.50;;;;;;;26.00;79.22;95001.53;5112297;28;20436;-64
2023/08/04 00:20:38;;;;;;;0.50;0.30;;;;;;;25.92;80.37;95003.41;5112595;28;20444;-63
2023/08/04 00:23:06;;;;;;;0.43;0.30;;;;;;;25.92;80.31;95003.41;5111865;28;20493;-63
2023/08/04 00:25:34;;;;;;;1.13;0.30;;;;;;;25.98;80.61;95007.34;5111894;28;20478;-64
2023/08/04 00:28:03;;;;;;;0.40;0.30;;;;;;;26.00;80.26;95009.69;5112133;28;20471;-63
2023/08/04 00:30:31;;;;;;;0.40;0.30;;;;;;;25.45;80.43;94957.16;5112303;28;20446;-62
2023/08/04 00:33:01;;;;;;;0.53;0.47;;;;;;;25.77;80.85;94997.06;5111789;28;20463;-63
2023/08/04 00:35:29;;;;;;;0.50;0.40;;;;;;;25.90;80.91;95010.38;5111485;28;20849;-63
2023/08/04 00:37:58;;;;;;;0.70;0.30;;;;;;;25.92;80.81;95010.75;5111618;28;20494;-63
2023/08/04 00:40:28;;;;;;;0.50;0.30;;;;;;;25.90;80.93;95018.50;5111575;28;20443;-63
2023/08/04 00:42:57;;;;;;;0.40;0.30;;;;;;;25.85;81.36;95008.78;5111715;28;20477;-64
2023/08/04 00:45:27;;;;;;;0.40;0.30;;;;;;;25.97;81.18;95013.13;5112180;28;20432;-63
2023/08/04 00:47:56;;;;;;;0.70;0.50;;;;;;;25.86;81.11;95013.81;5111427;28;20471;-65
2023/08/04 00:50:26;;;;;;;0.73;0.67;;;;;;;25.78;80.92;95011.41;5111673;28;20506;-63
2023/08/04 00:52:55;;;;;;;0.50;0.40;;;;;;;25.76;81.69;95013.72;5111590;28;20444;-64
2023/08/04 00:55:26;;;;;;;0.40;0.30;;;;;;;25.70;82.92;95012.50;5111173;28;20472;-63
2023/08/04 00:57:56;;;;;;;0.50;0.50;;;;;;;25.62;84.09;95013.56;5111215;28;20439;-64
2023/08/04 01:00:24;;;;;;;0.40;0.30;;;;;;;25.65;83.37;95010.13;5111848;28;20963;-64
2023/08/04 01:02:53;;;;;;;1.80;0.50;;;;;;;25.65;84.48;95010.13;5111910;28;20450;-64
2023/08/04 01:05:28;;;;;;;0.67;0.67;;;;;;;25.62;83.39;95014.38;5110732;28;21046;-64
2023/08/04 01:08:05;;;;;;;0.50;0.30;;;;;;;25.55;84.05;95010.78;5111469;28;20443;-63
2023/08/04 01:10:44;;;;;;;0.70;0.70;;;;;;;25.49;84.41;95015.75;5111170;28;20951;-64
2023/08/04 01:13:18;;;;;;;0.40;0.30;;;;;;;25.53;84.30;95010.34;5111250;28;20472;-64
2023/08/04 01:15:46;;;;;;;0.40;0.30;;;;;;;25.48;84.96;95018.84;5110847;28;20525;-64
2023/08/04 01:18:20;;;;;;;0.40;0.20;;;;;;;25.25;85.10;94981.72;5111336;28;20813;-63
2023/08/04 01:20:49;;;;;;;0.50;0.30;;;;;;;25.44;84.68;95007.13;5111336;28;20440;-64
2023/08/04 01:23:19;;;;;;;0.50;0.30;;;;;;;25.42;85.28;95007.53;5111290;28;20439;-64
2023/08/04 01:25:48;;;;;;;0.50;0.40;;;;;;;25.27;84.94;94980.59;5111810;28;20813;-64
2023/08/04 01:28:17;;;;;;;0.70;0.70;;;;;;;25.25;85.95;94999.94;5111349;28;20463;-64
2023/08/04 01:30:48;;;;;;;0.77;0.43;;;;;;;25.31;85.37;95003.09;5111392;28;20475;-64
2023/08/04 01:33:17;;;;;;;0.60;0.50;;;;;;;25.29;85.96;94997.28;5111504;28;20444;-64
2023/08/04 01:35:45;;;;;;;0.40;0.30;;;;;;;25.27;86.06;94995.69;5110917;28;20471;-64
2023/08/04 01:38:14;;;;;;;0.50;0.40;;;;;;;25.27;85.31;94995.69;5111388;28;20523;-64
2023/08/04 01:40:44;;;;;;;0.50;0.30;;;;;;;25.14;86.66;94997.13;5111119;28;20442;-64
2023/08/04 01:43:12;;;;;;;0.40;0.30;;;;;;;25.23;86.54;94999.53;5111045;28;20486;-64
2023/08/04 01:45:40;;;;;;;0.50;0.30;;;;;;;25.20;85.65;94998.34;5111229;28;20443;-64
2023/08/04 01:48:09;;;;;;;0.40;0.30;;;;;;;25.13;86.39;94989.34;5111142;28;20463;-64
2023/08/04 01:50:37;;;;;;;0.50;0.30;;;;;;;25.09;86.94;94992.03;5111130;28;20448;-64
2023/08/04 01:53:05;;;;;;;0.47;0.40;;;;;;;25.07;87.19;94999.72;5111679;28;20500;-64
2023/08/04 01:55:34;;;;;;;0.40;0.30;;;;;;;25.00;88.45;94999.63;5110892;28;20468;-64
2023/08/04 01:58:04;;;;;;;0.70;0.50;;;;;;;25.11;87.42;94997.84;5111084;28;20937;-64
2023/08/04 02:00:32;;;;;;;0.40;0.20;;;;;;;25.13;87.70;94986.63;5085000;28;20523;-64
2023/08/04 02:03:00;;;;;;;0.40;0.30;;;;;;;25.19;86.27;94996.78;5098932;28;21001;-63
2023/08/04 02:05:29;;;;;;;0.40;0.20;;;;;;;25.18;86.73;95000.66;5111642;28;20851;-65
2023/08/04 02:07:57;;;;;;;0.60;0.50;;;;;;;25.17;86.26;95006.44;5110868;28;20806;-63
2023/08/04 02:10:25;;;;;;;0.40;0.33;;;;;;;25.16;86.47;95005.66;5112924;28;20498;-64
2023/08/04 02:12:53;;;;;;;0.50;0.30;;;;;;;25.13;86.71;95008.31;5114618;28;20773;-64
2023/08/04 02:15:23;;;;;;;0.60;0.60;;;;;;;25.21;86.34;95010.75;5114962;28;20432;-64
2023/08/04 02:17:51;;;;;;;0.70;0.50;;;;;;;25.30;85.55;95007.75;5114727;28;20427;-64
2023/08/04 02:20:20;;;;;;;0.40;0.30;;;;;;;25.24;85.54;95010.03;5114531;28;20446;-64
2023/08/04 02:22:48;;;;;;;1.37;0.30;;;;;;;25.23;85.46;95008.44;5113995;28;20497;-64
2023/08/04 02:25:16;;;;;;;0.67;0.40;;;;;;;25.06;86.59;95003.59;5104074;28;20437;-64
2023/08/04 02:27:45;;;;;;;0.50;0.40;;;;;;;25.04;86.54;95014.03;5111334;28;20440;-64
2023/08/04 02:30:13;;;;;;;1.23;0.60;;;;;;;25.10;85.92;95015.25;5114275;28;20447;-64
2023/08/04 02:32:43;;;;;;;0.40;0.30;;;;;;;24.97;87.28;95003.06;5114192;28;20519;-64
2023/08/04 02:35:11;;;;;;;0.50;0.40;;;;;;;25.03;87.49;95019.81;5114277;28;20439;-64
2023/08/04 02:37:39;;;;;;;0.50;0.43;;;;;;;24.71;89.60;95016.66;5114015;28;20475;-64
2023/08/04 02:40:09;;;;;;;0.97;0.57;;;;;;;24.78;90.24;95019.50;5113992;28;20522;-64
2023/08/04 02:42:37;;;;;;;0.50;0.40;;;;;;;24.84;89.29;95012.63;5113249;28;20938;-63
2023/08/04 02:45:06;;;;;;;1.03;0.50;;;;;;;24.84;89.21;95007.19;5114201;28;20502;-63
2023/08/04 02:47:36;;;;;;;3.00;0.50;;;;;;;24.86;88.56;95004.88;5113304;28;20521;-63
2023/08/04 02:50:08;;;;;;;0.60;0.40;;;;;;;24.72;89.84;95004.66;5113559;28;20509;-63
2023/08/04 02:52:36;;;;;;;0.47;0.30;;;;;;;24.69;90.28;95005.41;5113959;28;20447;-64
2023/08/04 02:55:23;;;;;;;0.93;0.70;;;;;;;24.44;91.16;95006.94;5114218;28;20447;-63
2023/08/04 02:57:51;;;;;;;5.60;0.90;;;;;;;24.60;92.10;95010.28;5113577;28;20475;-63
2023/08/04 03:00:20;;;;;;;0.53;0.40;;;;;;;24.23;91.19;94972.22;5113258;28;20436;-64
2023/08/04 03:02:48;;;;;;;0.60;0.50;;;;;;;24.51;91.91;95009.78;5113754;28;20810;-64
2023/08/04 03:05:18;;;;;;;0.87;0.60;;;;;;;24.47;92.72;95012.44;5113319;28;20432;-63
2023/08/04 03:07:46;;;;;;;0.70;0.70;;;;;;;24.34;93.78;95015.69;5112938;28;20500;-64
2023/08/04 03:10:14;;;;;;;0.70;0.63;;;;;;;24.32;94.87;95016.06;5113322;28;20444;-63
2023/08/04 03:12:43;;;;;;;1.97;0.80;;;;;;;24.40;93.93;95014.25;5113097;28;20440;-63
2023/08/04 03:15:11;;;;;;;0.50;0.40;;;;;;;24.49;93.00;95017.47;5108994;28;20436;-63
2023/08/04 03:17:39;;;;;;;0.50;0.30;;;;;;;24.29;92.15;94980.78;5106825;28;20592;-63
2023/08/04 03:20:09;;;;;;;0.40;0.30;;;;;;;24.49;92.56;95017.47;5113589;28;20440;-63
2023/08/04 03:22:39;;;;;;;3.80;0.40;;;;;;;24.52;91.83;95017.53;5111707;28;20442;-63
2023/08/04 03:25:09;;;;;;;0.57;0.50;;;;;;;24.55;91.49;95016.81;5101568;28;20468;-63
2023/08/04 03:27:38;;;;;;;0.70;0.50;;;;;;;24.68;90.42;95014.66;5111987;28;20447;-64
2023/08/04 03:30:07;;;;;;;0.40;0.40;;;;;;;24.83;88.51;95024.59;5112897;28;20496;-63
2023/08/04 03:32:36;;;;;;;0.70;0.70;;;;;;;24.86;88.76;95023.06;5112868;28;20475;-63
2023/08/04 03:35:05;;;;;;;0.50;0.37;;;;;;;24.86;88.26;95021.16;5112889;28;20516;-64
2023/08/04 03:37:34;;;;;;;0.80;0.60;;;;;;;24.75;88.49;95030.22;5113002;28;20475;-62
2023/08/04 03:40:04;;;;;;;0.93;0.83;;;;;;;23.96;95.37;95025.50;5113633;28;20435;-63
2023/08/04 03:42:33;;;;;;;0.63;0.60;;;;;;;23.71;100.00;95031.59;5112671;28;20435;-63
2023/08/04 03:45:02;;;;;;;1.53;1.43;;;;;;;23.62;100.00;95036.47;5112683;28;20518;-63
2023/08/04 03:47:30;;;;;;;1.10;1.10;;;;;;;23.35;100.00;95044.44;5111919;28;20436;-63
2023/08/04 03:49:59;;;;;;;0.67;0.63;;;;;;;23.23;100.00;95030.28;5113171;28;20444;-63
2023/08/04 03:52:29;;;;;;;2.63;0.67;;;;;;;23.09;100.00;95048.91;5112854;28;20439;-63
2023/08/04 03:54:57;;;;;;;0.90;0.90;;;;;;;22.97;100.00;95030.13;5112293;28;20625;-62
2023/08/04 03:57:27;;;;;;;0.70;0.70;;;;;;;22.72;100.00;95054.69;5112329;28;20482;-63
2023/08/04 03:59:56;;;;;;;1.03;0.80;;;;;;;22.52;100.00;95057.66;5112334;28;20443;-62
2023/08/04 04:02:24;;;;;;;0.90;0.80;;;;;;;22.07;100.00;95002.22;5112633;28;20493;-63
2023/08/04 04:04:53;;;;;;;1.00;1.00;;;;;;;22.56;100.00;95061.22;5112440;28;20432;-63
2023/08/04 04:07:21;;;;;;;0.83;0.70;;;;;;;23.26;100.00;95060.09;5112702;28;20523;-63
2023/08/04 04:09:49;;;;;;;0.73;0.70;;;;;;;22.36;100.00;94892.19;5112328;27;20450;-62
2023/08/04 04:12:18;;;;;;;0.67;0.67;;;;;;;23.69;100.00;95067.16;5112569;28;20446;-63
2023/08/04 04:14:47;;;;;;;0.70;0.70;;;;;;;23.86;100.00;95058.56;5111801;28;20456;-63
2023/08/04 04:17:16;;;;;;;0.47;0.30;;;;;;;23.97;100.00;95058.78;5111476;28;20479;-64
2023/08/04 04:19:44;;;;;;;0.50;0.30;;;;;;;23.99;100.00;95065.38;5112614;28;20842;-62
2023/08/04 04:22:12;;;;;;;1.27;1.17;;;;;;;23.60;100.00;95068.53;5112694;28;20861;-63
2023/08/04 04:24:41;;;;;;;0.70;0.70;;;;;;;23.75;100.00;95063.03;5111871;28;20474;-63
2023/08/04 04:27:11;;;;;;;0.60;0.60;;;;;;;23.91;100.00;95063.69;5112426;28;20440;-63
2023/08/04 04:29:40;;;;;;;0.90;0.50;;;;;;;24.08;100.00;95059.00;5111343;28;20450;-64
2023/08/04 04:32:10;;;;;;;0.57;0.50;;;;;;;24.17;100.00;95054.91;5111192;28;20523;-64
2023/08/04 04:34:38;;;;;;;0.70;0.53;;;;;;;24.31;100.00;95062.47;5112174;28;20447;-64
2023/08/04 04:37:07;;;;;;;0.70;0.70;;;;;;;24.20;100.00;95051.47;5112057;28;20489;-64
2023/08/04 04:39:35;;;;;;;0.80;0.77;;;;;;;24.39;100.00;95059.50;5112011;28;20496;-64
2023/08/04 04:42:05;;;;;;;0.90;0.40;;;;;;;24.58;100.00;95062.16;5111278;28;20443;-63
2023/08/04 04:44:33;;;;;;;0.50;0.40;;;;;;;24.71;100.00;95062.72;5111387;28;20477;-63
2023/08/04 04:47:01;;;;;;;1.93;0.57;;;;;;;24.63;100.00;95066.47;5111546;28;20476;-62
2023/08/04 04:49:31;;;;;;;1.33;0.90;;;;;;;24.62;100.00;95067.59;5112012;28;20459;-62
2023/08/04 04:52:00;;;;;;;0.80;0.80;;;;;;;24.77;99.93;95077.50;5111261;28;20813;-63
2023/08/04 04:54:28;;;;;;;0.60;0.50;;;;;;;24.86;97.15;95075.38;5112016;28;20523;-62
2023/08/04 04:56:56;;;;;;;0.87;0.87;;;;;;;24.91;94.71;95077.78;5111665;28;20506;-56
2023/08/04 04:59:25;;;;;;;0.50;0.40;;;;;;;25.02;93.68;95078.69;5111317;28;20440;-53
2023/08/04 05:01:53;;;;;;;0.70;0.70;;;;;;;25.17;92.01;95079.69;5111874;28;20436;-53
2023/08/04 05:04:21;;;;;;;1.70;0.87;;;;;;;25.24;92.72;95085.97;5111495;28;20431;-53
2023/08/04 05:06:51;;;;;;;0.63;0.33;;;;;;;25.35;92.42;95080.66;5111675;28;20467;-53
2023/08/04 05:09:20;;;;;;;0.50;0.30;;;;;;;25.54;91.01;95079.78;5112148;28;20436;-53
2023/08/04 05:11:48;;;;;;;0.50;0.40;;;;;;;25.57;89.77;95082.56;5111651;28;20440;-61
2023/08/04 05:14:17;;;;;;;0.50;0.50;;;;;;;25.64;89.31;95082.63;5111301;28;20953;-61
2023/08/04 05:16:45;;;;;;;0.43;0.37;;;;;;;25.77;88.24;95086.66;5085145;28;20527;-60
2023/08/04 05:19:14;;;;;;;0.60;0.50;;;;;;;25.83;85.85;95084.41;5110125;28;20444;-60
2023/08/04 05:21:42;;;;;;;0.97;0.97;;;;;;;25.73;86.65;95079.59;5111364;28;20477;-55
2023/08/04 05:24:12;;;;;;;0.70;0.60;;;;;;;25.89;86.31;95085.59;5097497;28;20449;-55
2023/08/04 05:26:41;;;;;;;0.83;0.70;;;;;;;26.13;82.87;95087.06;5111661;28;20444;-55
2023/08/04 05:29:09;;;;;;;0.40;0.30;;;;;;;26.29;81.30;95079.44;5111044;28;20451;-55
2023/08/04 05:31:37;;;;;;;0.50;0.43;;;;;;;26.38;83.02;95083.41;5111912;28;20883;-55
2023/08/04 05:36:51;;;;;;;0.80;0.60;;;;;;;26.38;81.50;95082.63;5111825;28;20479;-56
2023/08/04 05:39:21;;;;;;;1.13;1.03;;;;;;;26.30;82.19;95081.78;5111335;28;20980;-56
2023/08/04 05:41:49;;;;;;;1.17;0.57;;;;;;;26.35;84.84;95078.72;5111301;28;20501;-55
2023/08/04 05:44:18;;;;;;;1.20;1.03;;;;;;;26.14;86.58;95083.97;5105894;28;20440;-55
2023/08/04 05:46:46;;;;;;;0.70;0.50;;;;;;;26.25;86.34;95073.19;5109460;28;21009;-56
2023/08/04 05:49:14;;;;;;;1.17;1.07;;;;;;;26.82;81.89;95069.00;5115084;28;20471;-57
2023/08/04 05:51:42;;;;;;;0.73;0.73;;;;;;;26.91;82.06;95075.69;5115144;28;20447;-57
2023/08/04 05:54:11;;;;;;;0.70;0.50;;;;;;;27.07;80.30;95078.88;5115516;28;20948;-57
2023/08/04 05:56:41;;;;;;;0.80;0.80;;;;;;;26.90;79.38;95067.91;5115313;28;20500;-55
2023/08/04 05:59:09;;;;;;;0.73;0.73;;;;;;;27.26;76.81;95072.41;5115354;28;20565;-56
2023/08/04 06:01:37;;;;;;;0.40;0.40;;;;;;;27.60;75.55;95068.28;5114857;28;20483;-56
2023/08/04 06:04:06;;;;;;;0.90;0.90;;;;;;;27.78;76.83;95064.88;5115048;28;20500;-58
2023/08/04 06:06:34;;;;;;;0.90;0.90;;;;;;;28.12;74.07;95066.91;5112287;28;20482;-58
2023/08/04 06:09:03;;;;;;;0.60;0.60;;;;;;;28.13;74.86;95073.91;5114957;28;20443;-59
2023/08/04 06:11:31;;;;;;;0.80;0.70;;;;;;;28.20;73.39;95070.44;5114202;28;20496;-57
2023/08/04 06:14:01;;;;;;;1.33;1.27;;;;;;;27.98;72.78;95060.63;5115282;28;20496;-59
2023/08/04 06:16:29;;;;;;;4.20;0.93;;;;;;;28.21;72.62;95056.41;5114208;28;20435;-58
2023/08/04 06:18:58;;;;;;;1.03;1.03;;;;;;;28.45;71.82;95063.06;5114559;28;20475;-60
2023/08/04 06:21:26;;;;;;;1.83;1.13;;;;;;;28.75;70.69;95062.69;5114649;28;20443;-60
2023/08/04 06:23:55;;;;;;;1.73;1.63;;;;;;;28.64;69.44;95062.69;5115017;28;20431;-59
2023/08/04 06:26:23;;;;;;;7.10;1.53;;;;;;;28.25;70.06;95064.59;5114496;28;20439;-59
2023/08/04 06:28:52;;;;;;;1.00;1.00;;;;;;;28.83;68.29;95053.31;5114702;28;20443;-58
2023/08/04 06:31:21;;;;;;;1.63;1.53;;;;;;;28.89;68.64;95059.94;5087026;28;20435;-58
2023/08/04 06:33:50;;;;;;;0.70;0.70;;;;;;;29.31;67.41;95061.81;5113725;28;20432;-57
2023/08/04 06:36:18;;;;;;;3.07;1.70;;;;;;;29.42;66.78;95065.31;5114378;28;20504;-57
2023/08/04 06:38:46;;;;;;;2.50;2.30;;;;;;;29.58;65.57;95060.16;5113264;28;20495;-57
2023/08/04 06:41:15;;;;;;;2.97;1.60;;;;;;;29.41;64.96;95039.94;5114447;28;20436;-57
2023/08/04 06:43:43;;;;;;;4.90;0.83;;;;;;;29.85;64.24;95058.53;5113870;27;20439;-56
2023/08/04 06:46:11;;;;;;;1.87;1.77;;;;;;;29.84;63.32;95067.88;5114516;28;20838;-56
2023/08/04 06:48:41;;;;;;;1.83;1.73;;;;;;;29.64;62.55;95058.56;5113845;28;20837;-57
2023/08/04 06:51:10;;;;;;;1.53;1.43;;;;;;;30.08;61.62;95060.72;5114375;28;20443;-57
2023/08/04 06:53:38;;;;;;;2.77;0.97;;;;;;;30.33;61.19;95055.09;5113548;28;20444;-57
2023/08/04 06:56:07;;;;;;;0.80;0.80;;;;;;;30.67;59.22;95056.78;5112983;28;20436;-55
2023/08/04 06:58:35;;;;;;;1.90;1.60;;;;;;;30.17;59.27;95053.63;5113688;27;20998;-54
2023/08/04 07:01:03;;;;;;;1.17;0.73;;;;;;;30.81;59.17;95055.91;5114369;28;20492;-55
2023/08/04 07:03:32;;;;;;;1.47;0.90;;;;;;;31.12;58.56;95049.34;5113535;28;20526;-55
2023/08/04 07:06:02;;;;;;;1.30;1.20;;;;;;;30.82;57.82;95051.97;5114007;28;20439;-55
2023/08/04 07:08:30;;;;;;;2.40;1.43;;;;;;;30.80;58.82;95052.38;5113648;28;20493;-55
2023/08/04 07:10:58;;;;;;;1.13;1.10;;;;;;;31.33;58.13;95046.38;5113518;28;20474;-54
2023/08/04 07:13:29;;;;;;;2.30;2.20;;;;;;;31.32;56.57;95044.81;5113253;28;20435;-54
2023/08/04 07:15:58;;;;;;;0.77;0.77;;;;;;;31.83;57.77;95041.09;5113273;28;20554;-54
2023/08/04 07:18:26;;;;;;;1.33;1.23;;;;;;;31.96;57.42;95039.34;5112787;28;20514;-54
2023/08/04 07:20:54;;;;;;;1.00;0.73;;;;;;;32.02;55.10;95045.19;5112828;28;20439;-55
2023/08/04 07:23:24;;;;;;;1.10;1.00;;;;;;;32.28;55.50;95040.91;5087219;28;20811;-54
2023/08/04 07:25:56;;;;;;;0.93;0.80;;;;;;;31.91;54.68;94937.59;5113375;28;20511;-54
2023/08/04 07:28:25;;;;;;;2.83;1.17;;;;;;;32.34;53.59;95042.75;5113510;28;20446;-54
2023/08/04 07:30:53;;;;;;;1.27;1.13;;;;;;;33.06;52.65;95034.94;5113388;28;20443;-54
2023/08/04 07:33:23;;;;;;;1.57;1.47;;;;;;;32.41;52.62;95034.41;5113368;28;20814;-54
2023/08/04 07:35:54;;;;;;;0.40;0.40;;;;;;;33.20;51.79;94993.47;5112774;28;21021;-54
2023/08/04 07:38:25;;;;;;;1.13;1.03;;;;;;;33.23;51.04;95036.56;5113186;28;20470;-54
2023/08/04 07:40:54;;;;;;;0.83;0.83;;;;;;;33.17;52.28;94983.31;5112665;28;20469;-54
2023/08/04 07:43:22;;;;;;;0.93;0.93;;;;;;;32.92;51.37;95021.41;5113300;28;20450;-54
2023/08/04 07:45:52;;;;;;;0.80;0.80;;;;;;;33.72;50.37;95019.13;5112819;28;20525;-56
2023/08/04 07:48:21;;;;;;;1.70;0.83;;;;;;;34.19;49.74;95014.19;5100550;28;20463;-55
2023/08/04 07:50:51;;;;;;;1.60;1.50;;;;;;;34.17;48.63;95016.59;5112057;28;20451;-55
2023/08/04 07:53:19;;;;;;;1.97;1.53;;;;;;;33.68;48.11;95023.13;5112655;28;20435;-56
2023/08/04 07:55:59;;;;;;;0.73;0.73;;;;;;;34.46;47.90;95016.66;5086645;28;20463;-56
2023/08/04 07:58:27;;;;;;;1.70;1.60;;;;;;;35.00;48.23;95017.69;5112685;28;20446;-55
2023/08/04 08:00:56;;;;;;;0.70;0.70;;;;;;;34.92;47.38;95016.34;5112507;28;20463;-55
2023/08/04 08:03:24;;;;;;;1.03;1.03;;;;;;;34.94;45.73;95022.16;5112591;28;20427;-55
2023/08/04 08:05:53;;;;;;;0.57;0.40;;;;;;;35.52;45.70;95017.50;5112254;28;20537;-56
2023/08/04 08:08:21;;;;;;;0.53;0.53;;;;;;;35.49;46.11;95014.81;5111803;28;20431;-55
2023/08/04 08:10:50;;;;;;;1.73;1.63;;;;;;;35.20;44.71;95016.81;5112682;28;20439;-55
2023/08/04 08:13:19;;;;;;;1.17;1.17;;;;;;;35.13;45.63;95009.50;5112220;28;20435;-55
2023/08/04 08:15:48;;;;;;;0.40;0.40;;;;;;;35.51;47.42;95006.88;5112538;28;20435;-55
2023/08/04 08:18:16;;;;;;;1.30;1.20;;;;;;;34.79;46.43;95012.72;5112510;28;20192;-55
2023/08/04 08:20:45;;;;;;;0.90;0.90;;;;;;;34.82;46.27;95011.09;5112465;28;20524;-55
2023/08/04 08:23:13;;;;;;;0.80;0.80;;;;;;;34.89;46.10;95006.16;5112256;28;20461;-55
2023/08/04 08:25:42;;;;;;;0.77;0.77;;;;;;;35.68;44.92;95005.63;5099521;28;20435;-55
2023/08/04 08:28:10;;;;;;;0.80;0.80;;;;;;;36.46;45.34;94992.22;5085162;28;20220;-55
2023/08/04 08:30:40;;;;;;;1.27;1.17;;;;;;;36.08;44.68;94995.75;5111688;28;20257;-55
2023/08/04 08:33:08;;;;;;;1.27;1.27;;;;;;;36.19;45.73;94989.91;5112181;28;20189;-53
2023/08/04 08:35:37;;;;;;;1.03;0.60;;;;;;;36.90;45.76;94983.63;5111726;28;20317;-54
2023/08/04 08:38:05;;;;;;;0.63;0.60;;;;;;;37.31;44.37;94981.84;5112240;28;20271;-53
2023/08/04 08:40:33;;;;;;;1.77;1.67;;;;;;;36.44;42.79;94994.63;5109860;28;20213;-53
2023/08/04 08:43:02;;;;;;;1.00;0.90;;;;;;;36.39;43.74;94984.94;5101100;28;20200;-52
2023/08/04 08:45:31;;;;;;;0.93;0.77;;;;;;;36.87;42.20;94983.75;5112643;28;20194;-53
2023/08/04 08:48:02;;;;;;;1.30;0.50;;;;;;;37.25;42.49;94984.41;5111945;28;20233;-53
2023/08/04 08:50:31;;;;;;;0.43;0.43;;;;;;;37.13;43.07;94968.66;5112051;28;20193;-53
2023/08/04 08:53:05;;;;;;;0.85;0.80;;;;;;;37.55;42.82;94971.13;5111710;28;20204;-53
2023/08/04 08:55:34;;;;;;;3.03;1.55;;;;;;;36.59;42.41;94979.97;5111676;28;20188;-53
2023/08/04 08:58:04;;;;;;;1.77;1.08;;;;;;;36.83;42.96;94972.84;5112234;28;20192;-52
2023/08/04 09:00:35;;;;;;;0.98;0.93;;;;;;;36.74;41.49;94977.47;5111744;28;20674;-53
2023/08/04 09:03:06;;;;;;;1.42;1.42;;;;;;;36.78;41.03;94964.34;5111705;28;20220;-52
2023/08/04 09:05:34;;;;;;;0.47;0.47;;;;;;;37.00;41.16;94954.13;5086687;28;20200;-52
2023/08/04 09:08:03;;;;;;;0.63;0.63;;;;;;;37.92;40.42;94961.81;5111321;28;20675;-52
2023/08/04 09:10:34;;;;;;;1.20;1.20;;;;;;;38.33;39.87;94955.84;5111921;28;20710;-52
2023/08/04 09:13:03;;;;;;;1.17;1.00;;;;;;;38.09;39.77;94943.75;5111445;28;20577;-53
2023/08/04 09:15:35;;;;;;;0.88;0.88;;;;;;;38.73;39.65;94948.28;5112006;28;20613;-53
2023/08/04 09:18:08;;;;;;;1.20;1.10;;;;;;;38.06;39.28;94952.94;5111765;28;20197;-53
2023/08/04 09:20:36;;;;;;;0.65;0.60;;;;;;;38.78;41.05;94941.34;5115425;28;20212;-53
2023/08/04 09:23:11;;;;;;;1.17;1.08;;;;;;;38.61;39.34;94946.34;5115394;28;20231;-53
2023/08/04 09:25:52;;;;;;;3.65;0.98;;;;;;;38.79;38.79;94934.56;5115578;28;20197;-53
2023/08/04 09:28:20;;;;;;;3.13;1.20;;;;;;;38.92;36.87;94939.94;5090782;28;20205;-53
2023/08/04 09:31:02;;;;;;;1.02;0.75;;;;;;;38.88;37.77;94937.34;5115305;28;20284;-53
2023/08/04 09:33:32;;;;;;;0.82;0.82;;;;;;;39.66;37.38;94928.34;5115833;28;20193;-53
2023/08/04 09:36:08;;;;;;;1.73;1.63;;;;;;;39.05;37.63;94933.03;5115694;28;20212;-53
2023/08/04 09:38:38;;;;;;;0.85;0.85;;;;;;;38.59;38.07;94937.75;5115792;28;20200;-52
2023/08/04 09:41:08;;;;;;;0.43;0.43;;;;;;;39.04;39.01;94922.41;5115348;28;20227;-52
2023/08/04 09:43:43;;;;;;;0.65;0.40;;;;;;;40.14;37.21;94926.50;5115552;27;20643;-52
2023/08/04 09:46:18;;;;;;;1.08;0.60;;;;;;;39.27;37.32;94928.09;5093279;28;20200;-52
2023/08/04 09:48:49;;;;;;;0.73;0.73;;;;;;;39.08;36.60;94923.00;5115215;28;20233;-52
2023/08/04 09:51:19;;;;;;;0.65;0.65;;;;;;;39.73;36.99;94923.25;5115680;28;20200;-52
2023/08/04 09:53:48;;;;;;;0.80;0.80;;;;;;;39.49;36.56;94911.28;5115123;28;20219;-52
2023/08/04 09:56:19;;;;;;;0.60;0.45;;;;;;;39.16;37.25;94905.63;5115355;28;20661;-51
2023/08/04 09:58:48;;;;;;;0.50;0.50;;;;;;;39.06;36.79;94915.16;5115177;28;20201;-51
2023/08/04 10:01:18;;;;;;;0.63;0.63;;;;;;;38.61;36.87;94912.34;5115249;28;20579;-51
2023/08/04 10:03:53;;;;;;;1.70;1.60;;;;;;;38.55;36.98;94912.22;5114823;28;20235;-51
2023/08/04 10:06:23;;;;;;;2.00;1.90;;;;;;;38.82;37.26;94905.94;5114898;28;20650;-51
2023/08/04 10:08:54;;;;;;;1.05;1.05;;;;;;;38.73;37.25;94909.47;5115420;28;20197;-52
2023/08/04 10:11:23;;;;;;;0.73;0.73;;;;;;;39.92;35.19;94902.50;5114654;28;20196;-54
2023/08/04 10:13:54;;;;;;;1.00;1.00;;;;;;;39.40;35.62;94900.19;5114439;28;20233;-52
2023/08/04 10:16:26;;;;;;;0.60;0.60;;;;;;;39.11;35.85;94909.00;5114189;28;20364;-52
2023/08/04 10:19:01;;;;;;;0.60;0.60;;;;;;;40.22;35.65;94892.38;5115200;28;20189;-52
2023/08/04 10:21:33;;;;;;;1.98;1.88;;;;;;;39.61;34.02;94902.03;5114321;28;20246;-51
2023/08/04 10:24:08;;;;;;;1.20;1.17;;;;;;;39.71;33.75;94911.06;5114740;28;20573;-52
2023/08/04 10:26:47;;;;;;;1.10;1.00;;;;;;;40.03;33.17;94902.00;5088987;28;20236;-52
2023/08/04 10:29:17;;;;;;;0.50;0.40;;;;;;;40.47;32.88;94891.94;5114343;27;20581;-52
2023/08/04 10:31:50;;;;;;;0.90;0.90;;;;;;;40.25;34.41;94902.53;5113331;28;20204;-53
2023/08/04 10:34:27;;;;;;;0.60;0.60;;;;;;;41.24;33.58;94894.69;5107576;28;20200;-52
2023/08/04 10:37:04;;;;;;;0.80;0.80;;;;;;;40.46;33.31;94895.16;5114578;28;20231;-53
2023/08/04 10:39:35;;;;;;;1.50;1.40;;;;;;;39.74;33.66;94893.50;5100888;28;20262;-53
2023/08/04 10:42:14;;;;;;;0.75;0.75;;;;;;;39.53;33.94;94891.69;5114283;28;20717;-53
2023/08/04 10:44:52;;;;;;;1.67;0.50;;;;;;;39.43;35.24;94882.63;5114123;28;20193;-53
2023/08/04 10:47:46;;;;;;;0.50;0.50;;;;;;;40.61;33.14;94884.88;5113828;28;20569;-53
2023/08/04 10:50:36;;;;;;;0.77;0.77;;;;;;;41.01;32.70;94876.84;5113607;28;20232;-53
2023/08/04 10:53:05;;;;;;;1.00;0.68;;;;;;;41.13;32.73;94883.38;5113898;28;20258;-53
2023/08/04 10:55:34;;;;;;;0.88;0.88;;;;;;;40.77;33.12;94881.66;5113854;28;20200;-53
2023/08/04 10:58:14;;;;;;;0.40;0.38;;;;;;;40.85;33.06;94868.94;5114442;28;20585;-53
2023/08/04 11:00:44;;;;;;;1.60;1.50;;;;;;;40.78;32.55;94871.31;5114046;28;20213;-54
2023/08/04 11:03:19;;;;;;;0.77;0.77;;;;;;;40.95;32.91;94864.88;5114051;28;20571;-52
2023/08/04 11:05:50;;;;;;;1.17;0.85;;;;;;;41.21;31.77;94859.53;5113907;28;20200;-53
2023/08/04 11:08:19;;;;;;;1.35;1.33;;;;;;;40.79;32.73;94856.16;5113780;28;20276;-53
2023/08/04 11:10:48;;;;;;;0.77;0.77;;;;;;;40.78;33.48;94858.19;5113481;28;20537;-53
2023/08/04 11:13:18;;;;;;;0.70;0.70;;;;;;;40.88;33.69;94865.25;5113395;28;20701;-54
2023/08/04 11:15:48;;;;;;;1.00;1.00;;;;;;;39.74;34.47;94866.53;5113556;28;20234;-51
2023/08/04 11:18:21;;;;;;;1.50;1.42;;;;;;;39.00;36.02;94827.53;5113487;28;20197;-50
2023/08/04 11:20:51;;;;;;;1.08;0.70;;;;;;;40.31;35.22;94853.41;5113262;28;20213;-50
2023/08/04 11:23:26;;;;;;;1.52;1.52;;;;;;;39.95;35.17;94854.38;5087119;28;20234;-50
2023/08/04 11:25:55;;;;;;;3.30;1.20;;;;;;;39.84;35.14;94858.91;5113101;28;20196;-50
2023/08/04 11:28:24;;;;;;;1.58;0.90;;;;;;;39.52;34.52;94807.69;5113366;28;20185;-50
2023/08/04 11:31:02;;;;;;;0.60;0.60;;;;;;;40.70;36.05;94850.69;5112844;28;20771;-50
2023/08/04 11:33:31;;;;;;;1.10;1.10;;;;;;;40.96;33.00;94846.19;5113673;28;20611;-50
2023/08/04 11:36:03;;;;;;;0.85;0.73;;;;;;;41.61;33.04;94839.47;5113068;28;20201;-49
2023/08/04 11:38:32;;;;;;;1.13;1.02;;;;;;;41.17;32.26;94840.22;5113488;28;20200;-51
2023/08/04 11:41:02;;;;;;;3.35;1.02;;;;;;;41.17;32.94;94845.78;5112889;28;20213;-51
2023/08/04 11:43:31;;;;;;;0.90;0.90;;;;;;;41.97;31.25;94849.41;5112966;28;20696;-51
2023/08/04 11:46:03;;;;;;;3.13;0.52;;;;;;;42.02;31.82;94849.47;5099750;28;20288;-51